createdAt,value
2019-04-22T00:01:23.182Z,9.25
2019-04-22T00:03:55.180Z,9.65
2019-04-22T00:06:48.052Z,9.97
2019-04-22T00:09:17.791Z,10.18
2019-04-22T00:12:02.523Z,10.23
2019-04-22T00:14:13.129Z,10.16
2019-04-22T00:16:51.734Z,10.00
2019-04-22T00:19:20.782Z,9.89
2019-04-22T00:21:55.221Z,9.79
2019-04-22T00:24:28.574Z,9.55
2019-04-22T00:26:57.381Z,9.37
2019-04-22T00:29:46.605Z,9.09
2019-04-22T00:32:19.393Z,8.93
2019-04-22T00:34:51.907Z,8.67
2019-04-22T00:37:24.763Z,8.62
2019-04-22T00:39:51.446Z,8.59
2019-04-22T00:42:32.928Z,8.58
2019-04-22T00:45:03.268Z,8.44
2019-04-22T00:47:28.002Z,8.21
2019-04-22T00:52:32.418Z,7.96
2019-04-22T00:55:10.162Z,7.99
2019-04-22T00:57:28.436Z,8.11
2019-04-22T01:00:01.474Z,8.20
2019-04-22T01:02:37.611Z,7.99
2019-04-22T01:05:07.930Z,7.86
2019-04-22T01:07:32.165Z,8.00
2019-04-22T01:10:09.228Z,8.14
2019-04-22T01:12:41.466Z,8.17
2019-04-22T01:15:07.302Z,8.18
2019-04-22T01:17:40.186Z,8.19
2019-04-22T01:20:25.633Z,8.05
2019-04-22T01:22:34.172Z,7.95
2019-04-22T01:25:08.827Z,7.91
2019-04-22T01:27:36.141Z,7.82
2019-04-22T01:30:03.672Z,7.69
2019-04-22T01:32:31.111Z,7.47
2019-04-22T01:35:08.470Z,7.21
2019-04-22T01:37:46.016Z,7.19
2019-04-22T01:40:25.375Z,7.27
2019-04-22T01:42:56.225Z,7.21
2019-04-22T01:45:26.744Z,7.26
2019-04-22T01:47:57.731Z,7.24
2019-04-22T01:50:27.776Z,7.26
2019-04-22T01:53:11.767Z,7.49
2019-04-22T01:55:31.112Z,7.50
2019-04-22T01:58:00.084Z,7.34
2019-04-22T02:00:35.941Z,7.04
2019-04-22T02:03:04.154Z,6.95
2019-04-22T02:05:37.619Z,6.90
2019-04-22T02:08:16.596Z,6.90
2019-04-22T02:10:40.246Z,7.12
2019-04-22T02:13:10.060Z,7.05
2019-04-22T02:15:41.578Z,6.94
2019-04-22T02:18:19.764Z,6.93
2019-04-22T02:20:45.544Z,6.98
2019-04-22T02:26:22.940Z,6.88
2019-04-22T02:36:22.682Z,6.49
2019-04-22T02:38:58.945Z,6.62
2019-04-22T02:41:26.423Z,6.59
2019-04-22T02:49:01.300Z,6.55
2019-04-22T02:51:22.684Z,6.29
2019-04-22T02:56:31.731Z,6.20
2019-04-22T02:59:04.233Z,6.28
2019-04-22T03:01:31.359Z,6.46
2019-04-22T03:06:34.637Z,6.44
2019-04-22T03:09:08.911Z,6.32
2019-04-22T03:14:19.023Z,6.05
2019-04-22T03:21:38.778Z,5.74
2019-04-22T03:24:18.417Z,5.56
2019-04-22T03:29:09.307Z,5.69
2019-04-22T03:37:20.538Z,5.66
2019-04-22T03:47:13.161Z,5.29
2019-04-22T03:54:39.859Z,5.37
2019-04-22T04:02:13.457Z,5.48
2019-04-22T04:04:36.761Z,5.49
2019-04-22T04:07:20.547Z,5.51
2019-04-22T04:09:49.239Z,5.57
2019-04-22T04:12:12.320Z,5.69
2019-04-22T04:17:22.472Z,5.91
2019-04-22T04:20:08.099Z,6.29
2019-04-22T04:22:30.490Z,6.66
2019-04-22T04:30:13.733Z,6.61
2019-04-22T04:40:06.834Z,5.56
2019-04-22T04:47:47.665Z,5.30
2019-04-22T04:50:12.245Z,5.21
2019-04-22T04:52:50.296Z,5.26
2019-04-22T04:55:09.722Z,5.34
2019-04-22T05:02:48.902Z,5.49
2019-04-22T05:05:12.973Z,5.52
2019-04-22T05:15:21.090Z,5.56
2019-04-22T05:17:43.402Z,5.72
2019-04-22T05:22:39.695Z,5.94
2019-04-22T05:25:11.770Z,6.35
2019-04-22T05:27:39.703Z,6.52
2019-04-22T05:30:26.761Z,6.79
2019-04-22T05:32:55.760Z,6.93
2019-04-22T05:35:21.755Z,6.86
2019-04-22T05:37:51.904Z,6.87
2019-04-22T05:40:20.556Z,6.79
2019-04-22T05:42:46.389Z,6.70
2019-04-22T05:50:18.949Z,6.91
2019-04-22T05:52:51.535Z,7.07
2019-04-22T05:55:30.539Z,7.22
2019-04-22T05:57:57.810Z,7.50
2019-04-22T06:03:11.990Z,8.40
2019-04-22T06:05:32.043Z,9.88
2019-04-22T06:08:02.489Z,11.65
2019-04-22T06:10:39.438Z,13.37
2019-04-22T06:13:06.577Z,14.76
2019-04-22T06:15:54.324Z,16.24
2019-04-22T06:18:16.094Z,17.04
2019-04-22T06:20:53.117Z,17.16
2019-04-22T06:23:25.629Z,16.62
2019-04-22T06:26:07.916Z,15.69
2019-04-22T06:28:38.368Z,15.09
2019-04-22T06:30:57.112Z,14.38
2019-04-22T06:33:31.984Z,14.11
2019-04-22T06:35:56.056Z,13.63
2019-04-22T06:38:40.348Z,12.90
2019-04-22T06:41:07.322Z,12.77
2019-04-22T06:43:33.828Z,12.69
2019-04-22T06:46:06.395Z,12.58
2019-04-22T06:48:34.675Z,12.34
2019-04-22T06:51:04.696Z,12.30
2019-04-22T06:53:37.427Z,12.45
2019-04-22T06:56:06.425Z,12.77
2019-04-22T06:58:36.895Z,13.08
2019-04-22T07:01:09.740Z,13.19
2019-04-22T07:03:50.286Z,13.24
2019-04-22T07:06:17.595Z,13.42
2019-04-22T07:11:06.088Z,13.65
2019-04-22T07:13:45.322Z,13.76
2019-04-22T07:16:13.346Z,13.97
2019-04-22T07:18:43.066Z,14.11
2019-04-22T07:21:15.813Z,14.32
2019-04-22T07:23:53.080Z,14.39
2019-04-22T07:26:18.798Z,14.31
2019-04-22T07:28:49.164Z,14.48
2019-04-22T07:31:16.193Z,14.63
2019-04-22T07:33:51.133Z,14.62
2019-04-22T07:36:35.361Z,14.94
2019-04-22T07:38:55.322Z,15.07
2019-04-22T07:41:24.072Z,15.03
2019-04-22T07:44:07.389Z,15.09
2019-04-22T07:46:27.922Z,15.05
2019-04-22T07:48:58.048Z,15.04
2019-04-22T07:51:26.809Z,15.12
2019-04-22T07:53:56.129Z,15.50
2019-04-22T07:56:29.517Z,15.72
2019-04-22T07:59:07.360Z,15.73
2019-04-22T08:01:33.768Z,15.63
2019-04-22T08:04:07.527Z,15.54
2019-04-22T08:06:51.579Z,15.72
2019-04-22T08:09:08.015Z,15.95
2019-04-22T08:14:18.865Z,16.09
2019-04-22T08:16:43.379Z,16.11
2019-04-22T08:19:18.757Z,16.44
2019-04-22T08:21:49.360Z,16.59
2019-04-22T08:24:18.475Z,16.81
2019-04-22T08:26:48.160Z,16.79
2019-04-22T08:29:19.114Z,16.93
2019-04-22T08:31:51.915Z,17.29
2019-04-22T08:34:19.508Z,17.11
2019-04-22T08:37:11.821Z,17.24
2019-04-22T08:41:43.502Z,17.36
2019-04-22T08:44:41.527Z,17.55
2019-04-22T08:47:04.253Z,17.61
2019-04-22T08:49:34.427Z,17.73
2019-04-22T08:52:03.875Z,17.98
2019-04-22T08:54:31.086Z,18.12
2019-04-22T08:57:06.782Z,18.15
2019-04-22T08:59:28.156Z,18.41
2019-04-22T09:02:09.351Z,18.46
2019-04-22T09:04:31.340Z,18.71
2019-04-22T09:07:20.303Z,18.75
2019-04-22T09:09:42.905Z,19.03
2019-04-22T09:12:21.955Z,19.25
2019-04-22T09:14:43.492Z,19.29
2019-04-22T09:17:17.498Z,19.11
2019-04-22T09:19:44.110Z,19.14
2019-04-22T09:24:48.596Z,19.62
2019-04-22T09:30:13.158Z,19.75
2019-04-22T09:32:26.693Z,19.92
2019-04-22T09:34:58.899Z,19.95
2019-04-22T09:37:41.936Z,20.19
2019-04-22T09:40:04.547Z,20.35
2019-04-22T09:42:39.554Z,20.68
2019-04-22T09:45:05.840Z,20.68
2019-04-22T09:47:40.949Z,20.83
2019-04-22T09:50:08.614Z,21.02
2019-04-22T09:52:42.123Z,21.70
2019-04-22T09:55:15.405Z,21.51
2019-04-22T09:57:43.166Z,21.51
2019-04-22T10:00:17.140Z,21.85
2019-04-22T10:02:49.031Z,22.06
2019-04-22T10:07:45.023Z,21.92
2019-04-22T10:10:18.877Z,22.12
2019-04-22T10:12:46.960Z,22.29
2019-04-22T10:15:19.591Z,22.81
2019-04-22T10:17:54.855Z,22.81
2019-04-22T10:20:24.331Z,22.61
2019-04-22T10:22:51.974Z,22.97
2019-04-22T10:25:27.992Z,22.97
2019-04-22T10:28:07.021Z,22.50
2019-04-22T10:30:33.335Z,22.67
2019-04-22T10:32:54.912Z,22.58
2019-04-22T10:35:12.922Z,22.58
2019-04-22T10:37:40.401Z,22.82
2019-04-22T10:40:15.833Z,22.92
2019-04-22T10:42:45.448Z,22.99
2019-04-22T10:45:16.402Z,22.96
2019-04-22T10:47:48.000Z,22.97
2019-04-22T10:50:20.510Z,22.97
2019-04-22T10:52:50.135Z,22.74
2019-04-22T10:55:21.223Z,23.13
2019-04-22T10:57:50.778Z,23.13
2019-04-22T11:00:19.914Z,23.15
2019-04-22T11:02:49.748Z,22.91
2019-04-22T11:05:19.955Z,22.91
2019-04-22T11:07:56.786Z,22.94
2019-04-22T11:10:41.228Z,22.97
2019-04-22T11:12:51.605Z,23.00
2019-04-22T11:15:22.431Z,23.00
2019-04-22T11:17:53.449Z,23.36
2019-04-22T11:20:23.784Z,22.95
2019-04-22T11:22:53.148Z,22.95
2019-04-22T11:25:23.458Z,22.87
2019-04-22T11:27:53.701Z,22.89
2019-04-22T11:30:25.949Z,22.89
2019-04-22T11:32:54.585Z,22.89
2019-04-22T11:35:23.901Z,22.99
2019-04-22T11:37:53.088Z,22.78
2019-04-22T11:40:28.812Z,22.85
2019-04-22T11:42:54.413Z,22.94
2019-04-22T11:45:24.193Z,23.42
2019-04-22T11:47:55.163Z,23.42
2019-04-22T11:50:25.985Z,23.27
2019-04-22T11:52:55.351Z,23.49
2019-04-22T11:55:24.823Z,23.49
2019-04-22T11:57:54.218Z,23.63
2019-04-22T12:00:30.873Z,22.97
2019-04-22T12:03:00.860Z,22.84
2019-04-22T12:05:30.257Z,22.84
2019-04-22T12:07:59.419Z,22.69
2019-04-22T12:10:38.852Z,22.80
2019-04-22T12:13:02.118Z,22.87
2019-04-22T12:15:32.904Z,22.87
2019-04-22T12:18:03.621Z,22.83
2019-04-22T12:20:35.047Z,22.94
2019-04-22T12:23:05.073Z,22.90
2019-04-22T12:25:46.396Z,23.09
2019-04-22T12:28:06.424Z,23.09
2019-04-22T12:30:35.722Z,23.10
2019-04-22T12:33:08.790Z,23.11
2019-04-22T12:35:36.973Z,23.11
2019-04-22T12:38:08.628Z,23.12
2019-04-22T12:40:46.666Z,23.31
2019-04-22T12:43:10.703Z,23.34
2019-04-22T12:45:40.326Z,23.42
2019-04-22T12:48:10.105Z,23.44
2019-04-22T12:50:43.468Z,23.71
2019-04-22T12:53:14.323Z,23.71
2019-04-22T12:55:43.904Z,23.65
2019-04-22T12:58:13.886Z,23.87
2019-04-22T13:00:44.592Z,23.75
2019-04-22T13:03:14.053Z,23.74
2019-04-22T13:05:43.202Z,23.71
2019-04-22T13:08:13.761Z,23.89
2019-04-22T13:10:53.424Z,24.15
2019-04-22T13:13:15.399Z,24.14
2019-04-22T13:15:44.673Z,24.40
2019-04-22T13:18:27.089Z,24.80
2019-04-22T13:20:46.650Z,24.89
2019-04-22T13:23:17.931Z,24.95
2019-04-22T13:25:47.461Z,25.19
2019-04-22T13:28:16.715Z,25.25
2019-04-22T13:30:46.517Z,25.26
2019-04-22T13:33:16.862Z,25.32
2019-04-22T13:35:47.801Z,25.23
2019-04-22T13:38:19.263Z,25.45
2019-04-22T13:41:00.694Z,25.14
2019-04-22T13:43:20.827Z,25.10
2019-04-22T13:45:54.072Z,24.96
2019-04-22T13:48:38.687Z,24.76
2019-04-22T13:51:33.807Z,24.23
2019-04-22T13:54:29.538Z,24.15
2019-04-22T13:56:19.386Z,24.33
2019-04-22T13:58:42.760Z,24.13
2019-04-22T14:01:02.626Z,24.19
2019-04-22T14:03:50.294Z,24.34
2019-04-22T14:06:20.663Z,24.29
2019-04-22T14:08:51.383Z,23.95
2019-04-22T14:11:34.581Z,23.88
2019-04-22T14:13:52.157Z,23.96
2019-04-22T14:16:22.775Z,23.90
2019-04-22T14:18:52.049Z,23.88
2019-04-22T14:21:21.246Z,23.80
2019-04-22T14:23:50.926Z,23.70
2019-04-22T14:26:20.212Z,23.64
2019-04-22T14:28:50.055Z,23.50
2019-04-22T14:31:20.391Z,23.39
2019-04-22T14:33:53.631Z,23.47
2019-04-22T14:36:23.448Z,23.52
2019-04-22T14:38:57.805Z,23.82
2019-04-22T14:41:43.665Z,23.82
2019-04-22T14:45:00.785Z,23.80
2019-04-22T14:46:58.742Z,23.72
2019-04-22T14:49:24.044Z,23.67
2019-04-22T14:51:55.089Z,23.53
2019-04-22T14:54:21.172Z,23.54
2019-04-22T14:56:34.383Z,23.53
2019-04-22T14:59:05.078Z,23.45
2019-04-22T15:01:35.035Z,23.46
2019-04-22T15:04:05.482Z,23.46
2019-04-22T15:06:36.152Z,23.35
2019-04-22T15:09:08.170Z,23.58
2019-04-22T15:11:51.613Z,23.70
2019-04-22T15:14:09.540Z,23.92
2019-04-22T15:16:57.826Z,24.06
2019-04-22T15:19:33.855Z,24.29
2019-04-22T15:22:03.173Z,23.94
2019-04-22T15:24:32.304Z,23.94
2019-04-22T15:27:02.618Z,23.96
2019-04-22T15:29:31.907Z,23.83
2019-04-22T15:32:01.107Z,23.84
2019-04-22T15:34:30.561Z,23.76
2019-04-22T15:37:00.237Z,23.78
2019-04-22T15:39:29.480Z,23.75
2019-04-22T15:42:09.555Z,23.68
2019-04-22T15:44:30.501Z,23.77
2019-04-22T15:47:00.897Z,24.05
2019-04-22T15:49:31.890Z,24.05
2019-04-22T15:52:03.912Z,24.27
2019-04-22T15:54:33.871Z,24.18
2019-04-22T15:57:04.545Z,24.13
2019-04-22T15:59:49.414Z,24.02
2019-04-22T16:02:06.593Z,24.00
2019-04-22T16:04:36.787Z,24.04
2019-04-22T16:07:07.395Z,24.11
2019-04-22T16:09:36.935Z,24.19
2019-04-22T16:12:16.262Z,24.16
2019-04-22T16:14:41.991Z,24.14
2019-04-22T16:17:08.701Z,23.94
2019-04-22T16:19:39.378Z,23.79
2019-04-22T16:22:14.902Z,23.62
2019-04-22T16:25:00.548Z,23.33
2019-04-22T16:27:30.582Z,23.33
2019-04-22T16:30:01.183Z,23.08
2019-04-22T16:32:31.961Z,22.88
2019-04-22T16:35:01.192Z,22.88
2019-04-22T16:37:30.670Z,22.73
2019-04-22T16:40:00.843Z,22.66
2019-04-22T16:42:37.880Z,22.65
2019-04-22T16:45:01.912Z,22.61
2019-04-22T16:47:31.442Z,22.61
2019-04-22T16:50:01.766Z,22.59
2019-04-22T16:52:32.194Z,22.57
2019-04-22T16:55:03.331Z,22.55
2019-04-22T16:57:33.730Z,22.52
2019-04-22T17:00:03.007Z,22.52
2019-04-22T17:02:55.989Z,22.36
2019-04-22T17:05:43.398Z,22.31
2019-04-22T17:08:14.176Z,22.15
2019-04-22T17:10:43.933Z,21.99
2019-04-22T17:13:20.939Z,21.65
2019-04-22T17:15:47.347Z,21.65
2019-04-22T17:18:17.226Z,21.65
2019-04-22T17:20:46.629Z,21.65
2019-04-22T17:23:15.936Z,21.37
2019-04-22T17:25:45.193Z,21.37
2019-04-22T17:28:15.420Z,21.27
2019-04-22T17:30:45.922Z,21.07
2019-04-22T17:33:15.077Z,20.89
2019-04-22T17:35:46.749Z,20.84
2019-04-22T17:38:26.156Z,20.84
2019-04-22T17:41:02.588Z,20.75
2019-04-22T17:43:52.297Z,20.75
2019-04-22T17:46:19.358Z,20.47
2019-04-22T17:49:15.197Z,20.41
2019-04-22T17:52:04.518Z,20.26
2019-04-22T17:54:30.777Z,20.22
2019-04-22T17:57:04.792Z,20.07
2019-04-22T17:59:35.931Z,19.95
2019-04-22T18:02:03.077Z,19.95
2019-04-22T18:04:18.093Z,19.81
2019-04-22T18:07:13.433Z,19.81
2019-04-22T18:10:14.281Z,19.69
2019-04-22T18:12:20.507Z,19.61
2019-04-22T18:14:59.512Z,19.57
2019-04-22T18:17:11.204Z,19.50
2019-04-22T18:19:39.644Z,19.39
2019-04-22T18:22:10.845Z,19.25
2019-04-22T18:24:39.198Z,19.07
2019-04-22T18:27:31.869Z,18.92
2019-04-22T18:29:44.612Z,18.92
2019-04-22T18:32:08.893Z,18.88
2019-04-22T18:34:42.828Z,18.86
2019-04-22T18:37:16.400Z,18.85
2019-04-22T18:39:52.623Z,18.82
2019-04-22T18:42:17.110Z,18.70
2019-04-22T18:44:55.990Z,18.68
2019-04-22T18:47:18.563Z,18.55
2019-04-22T18:49:49.249Z,18.46
2019-04-22T18:52:43.613Z,18.29
2019-04-22T18:55:36.023Z,18.26
2019-04-22T18:58:11.680Z,18.16
2019-04-22T19:00:29.374Z,17.91
2019-04-22T19:03:08.776Z,17.84
2019-04-22T19:05:51.766Z,17.76
2019-04-22T19:11:02.584Z,17.60
2019-04-22T19:16:12.761Z,17.48
2019-04-22T19:21:01.235Z,17.39
2019-04-22T19:23:32.103Z,17.27
2019-04-22T19:25:57.129Z,17.24
2019-04-22T19:28:36.070Z,17.18
2019-04-22T19:31:09.613Z,17.14
2019-04-22T19:33:34.868Z,17.11
2019-04-22T19:36:10.970Z,16.93
2019-04-22T19:38:27.715Z,16.89
2019-04-22T19:41:13.534Z,16.90
2019-04-22T19:43:40.716Z,16.92
2019-04-22T19:46:07.488Z,16.96
2019-04-22T19:48:45.651Z,17.05
2019-04-22T19:51:18.715Z,17.06
2019-04-22T19:53:47.390Z,16.96
2019-04-22T19:56:10.066Z,16.85
2019-04-22T19:58:41.508Z,16.79
2019-04-22T20:01:30.877Z,16.79
2019-04-22T20:04:15.080Z,16.79
2019-04-22T20:06:41.373Z,16.59
2019-04-22T20:09:14.046Z,16.59
2019-04-22T20:11:48.078Z,16.56
2019-04-22T20:14:16.905Z,16.52
2019-04-22T20:16:42.823Z,16.45
2019-04-22T20:19:25.353Z,16.38
2019-04-22T20:21:48.916Z,16.32
2019-04-22T20:24:07.985Z,16.20
2019-04-22T20:26:56.521Z,16.14
2019-04-22T20:29:27.065Z,16.18
2019-04-22T20:31:53.063Z,16.39
2019-04-22T20:34:24.011Z,16.41
2019-04-22T20:37:03.327Z,16.35
2019-04-22T20:39:36.006Z,16.28
2019-04-22T20:42:12.589Z,16.23
2019-04-22T20:44:35.246Z,16.17
2019-04-22T20:47:00.684Z,16.15
2019-04-22T20:49:35.476Z,16.15
2019-04-22T20:52:11.435Z,16.16
2019-04-22T20:54:34.952Z,16.22
2019-04-22T20:57:02.259Z,16.23
2019-04-22T20:59:40.264Z,16.12
2019-04-22T21:02:09.614Z,16.15
2019-04-22T21:04:32.322Z,16.10
2019-04-22T21:07:09.563Z,15.99
2019-04-22T21:09:43.251Z,16.00
2019-04-22T21:12:12.472Z,16.00
2019-04-22T21:14:53.208Z,15.89
2019-04-22T21:17:19.748Z,15.83
2019-04-22T21:19:54.657Z,15.86
2019-04-22T21:22:22.761Z,15.76
2019-04-22T21:24:49.387Z,15.63
2019-04-22T21:27:42.441Z,15.56
2019-04-22T21:29:48.503Z,15.61
2019-04-22T21:32:26.473Z,15.65
2019-04-22T21:35:03.782Z,15.68
2019-04-22T21:37:34.659Z,15.61
2019-04-22T21:39:52.542Z,15.59
2019-04-22T21:42:31.495Z,15.69
2019-04-22T21:44:56.962Z,15.57
2019-04-22T21:47:35.717Z,15.59
2019-04-22T21:50:21.524Z,15.56
2019-04-22T21:52:32.184Z,15.60
2019-04-22T21:55:14.405Z,15.67
2019-04-22T21:58:08.014Z,15.60
2019-04-22T22:03:07.200Z,15.52
2019-04-22T22:05:27.126Z,15.56
2019-04-22T22:07:56.135Z,15.56
2019-04-22T22:10:43.454Z,15.53
2019-04-22T22:13:13.830Z,15.52
2019-04-22T22:15:41.994Z,15.67
2019-04-22T22:18:08.427Z,15.74
2019-04-22T22:20:47.458Z,15.61
2019-04-22T22:23:21.854Z,15.54
2019-04-22T22:25:43.710Z,15.65
2019-04-22T22:28:33.384Z,15.78
2019-04-22T22:33:17.014Z,15.68
2019-04-22T22:35:45.797Z,15.47
2019-04-22T22:38:19.481Z,15.47
2019-04-22T22:40:34.113Z,15.41
2019-04-22T22:43:15.931Z,15.35
2019-04-22T22:45:39.267Z,15.26
2019-04-22T22:48:30.154Z,15.26
2019-04-22T22:50:53.421Z,15.21
2019-04-22T22:53:36.976Z,15.18
2019-04-22T22:55:57.990Z,15.22
2019-04-22T22:58:28.021Z,15.16
2019-04-22T23:00:56.188Z,15.14
2019-04-22T23:03:45.966Z,15.17
2019-04-22T23:06:03.621Z,15.09
2019-04-22T23:08:34.173Z,15.09
2019-04-22T23:11:05.597Z,15.05
2019-04-22T23:13:39.817Z,14.99
2019-04-22T23:15:58.350Z,14.86
2019-04-22T23:18:16.205Z,14.78
2019-04-22T23:20:47.847Z,14.75
2019-04-22T23:23:38.189Z,14.70
2019-04-22T23:26:06.123Z,14.72
2019-04-22T23:28:50.965Z,14.71
2019-04-22T23:31:30.842Z,14.69
2019-04-22T23:34:06.681Z,14.66
2019-04-22T23:36:59.029Z,14.58
2019-04-22T23:39:40.326Z,14.56
2019-04-22T23:42:04.811Z,14.53
2019-04-22T23:44:39.823Z,14.53
2019-04-22T23:47:15.593Z,14.49
2019-04-22T23:49:53.487Z,14.56
2019-04-22T23:52:32.030Z,14.56
2019-04-22T23:55:03.318Z,14.69
2019-04-22T23:57:34.824Z,14.68
